sensor_id;sensor_type;location;lat;lon;timestamp;P1;durP1;ratioP1;P2;durP2;ratioP2
21034;SDS011;10676;50.848;3.272;2022-08-21T00:02:16;11.07;;;7.57;;
21034;SDS011;10676;50.848;3.272;2022-08-21T00:04:46;15.57;;;7.10;;
21034;SDS011;10676;50.848;3.272;2022-08-21T00:07:12;8.88;;;6.65;;
21034;SDS011;10676;50.848;3.272;2022-08-21T00:09:38;19.48;;;7.47;;
21034;SDS011;10676;50.848;3.272;2022-08-21T00:12:05;12.48;;;6.57;;
21034;SDS011;10676;50.848;3.272;2022-08-21T00:14:31;11.20;;;7.00;;
21034;SDS011;10676;50.848;3.272;2022-08-21T00:16:57;12.00;;;7.68;;
21034;SDS011;10676;50.848;3.272;2022-08-21T00:19:23;14.18;;;7.57;;
21034;SDS011;10676;50.848;3.272;2022-08-21T00:21:50;12.90;;;7.70;;
21034;SDS011;10676;50.848;3.272;2022-08-21T00:24:17;10.90;;;7.45;;
21034;SDS011;10676;50.848;3.272;2022-08-21T00:26:43;10.30;;;7.75;;
21034;SDS011;10676;50.848;3.272;2022-08-21T00:29:09;12.55;;;7.43;;
21034;SDS011;10676;50.848;3.272;2022-08-21T00:31:35;10.52;;;7.70;;
21034;SDS011;10676;50.848;3.272;2022-08-21T00:34:01;13.63;;;9.05;;
21034;SDS011;10676;50.848;3.272;2022-08-21T00:36:27;18.45;;;9.38;;
21034;SDS011;10676;50.848;3.272;2022-08-21T00:38:54;15.13;;;9.38;;
21034;SDS011;10676;50.848;3.272;2022-08-21T00:41:20;10.38;;;9.38;;
21034;SDS011;10676;50.848;3.272;2022-08-21T00:43:48;15.40;;;9.05;;
21034;SDS011;10676;50.848;3.272;2022-08-21T00:46:14;11.00;;;9.68;;
21034;SDS011;10676;50.848;3.272;2022-08-21T00:48:40;14.80;;;9.55;;
21034;SDS011;10676;50.848;3.272;2022-08-21T00:51:08;14.73;;;9.10;;
21034;SDS011;10676;50.848;3.272;2022-08-21T00:53:47;13.45;;;8.38;;
21034;SDS011;10676;50.848;3.272;2022-08-21T00:56:17;17.25;;;9.38;;
21034;SDS011;10676;50.848;3.272;2022-08-21T00:58:45;10.63;;;9.13;;
21034;SDS011;10676;50.848;3.272;2022-08-21T01:01:12;12.10;;;8.95;;
21034;SDS011;10676;50.848;3.272;2022-08-21T01:03:38;15.93;;;9.27;;
21034;SDS011;10676;50.848;3.272;2022-08-21T01:06:04;14.13;;;8.60;;
21034;SDS011;10676;50.848;3.272;2022-08-21T01:08:31;14.20;;;9.65;;
21034;SDS011;10676;50.848;3.272;2022-08-21T01:10:58;13.35;;;10.68;;
21034;SDS011;10676;50.848;3.272;2022-08-21T01:13:25;13.57;;;11.10;;
21034;SDS011;10676;50.848;3.272;2022-08-21T01:15:55;14.70;;;10.13;;
21034;SDS011;10676;50.848;3.272;2022-08-21T01:18:24;15.93;;;11.00;;
21034;SDS011;10676;50.848;3.272;2022-08-21T01:20:58;14.57;;;13.13;;
21034;SDS011;10676;50.848;3.272;2022-08-21T01:23:38;12.65;;;11.27;;
21034;SDS011;10676;50.848;3.272;2022-08-21T01:26:06;17.52;;;11.45;;
21034;SDS011;10676;50.848;3.272;2022-08-21T01:28:33;16.48;;;11.85;;
21034;SDS011;10676;50.848;3.272;2022-08-21T01:31:03;17.77;;;11.40;;
21034;SDS011;10676;50.848;3.272;2022-08-21T01:33:31;25.33;;;11.15;;
21034;SDS011;10676;50.848;3.272;2022-08-21T01:35:56;16.90;;;11.15;;
21034;SDS011;10676;50.848;3.272;2022-08-21T01:38:22;18.85;;;11.88;;
21034;SDS011;10676;50.848;3.272;2022-08-21T01:40:48;14.25;;;12.65;;
21034;SDS011;10676;50.848;3.272;2022-08-21T01:43:13;16.70;;;12.77;;
21034;SDS011;10676;50.848;3.272;2022-08-21T01:45:39;17.58;;;12.05;;
21034;SDS011;10676;50.848;3.272;2022-08-21T01:48:04;16.25;;;11.48;;
21034;SDS011;10676;50.848;3.272;2022-08-21T01:50:30;19.60;;;12.48;;
21034;SDS011;10676;50.848;3.272;2022-08-21T01:52:56;25.15;;;13.52;;
21034;SDS011;10676;50.848;3.272;2022-08-21T01:55:22;20.73;;;13.63;;
21034;SDS011;10676;50.848;3.272;2022-08-21T01:57:48;18.20;;;13.32;;
21034;SDS011;10676;50.848;3.272;2022-08-21T02:00:15;15.35;;;13.77;;
21034;SDS011;10676;50.848;3.272;2022-08-21T02:02:44;17.20;;;14.27;;
21034;SDS011;10676;50.848;3.272;2022-08-21T02:05:10;27.38;;;15.25;;
21034;SDS011;10676;50.848;3.272;2022-08-21T02:07:37;17.58;;;14.77;;
21034;SDS011;10676;50.848;3.272;2022-08-21T02:10:05;19.83;;;14.40;;
21034;SDS011;10676;50.848;3.272;2022-08-21T02:12:32;17.92;;;13.73;;
21034;SDS011;10676;50.848;3.272;2022-08-21T02:14:59;22.65;;;14.70;;
21034;SDS011;10676;50.848;3.272;2022-08-21T02:17:25;21.52;;;14.00;;
21034;SDS011;10676;50.848;3.272;2022-08-21T02:19:51;17.60;;;14.02;;
21034;SDS011;10676;50.848;3.272;2022-08-21T02:22:17;17.90;;;13.93;;
21034;SDS011;10676;50.848;3.272;2022-08-21T02:24:42;20.77;;;14.27;;
21034;SDS011;10676;50.848;3.272;2022-08-21T02:27:08;25.60;;;14.38;;
21034;SDS011;10676;50.848;3.272;2022-08-21T02:29:34;17.02;;;15.02;;
21034;SDS011;10676;50.848;3.272;2022-08-21T02:32:00;19.33;;;14.73;;
21034;SDS011;10676;50.848;3.272;2022-08-21T02:34:25;19.63;;;15.13;;
21034;SDS011;10676;50.848;3.272;2022-08-21T02:36:51;23.15;;;16.10;;
21034;SDS011;10676;50.848;3.272;2022-08-21T02:39:17;18.20;;;15.70;;
21034;SDS011;10676;50.848;3.272;2022-08-21T02:41:42;18.40;;;16.60;;
21034;SDS011;10676;50.848;3.272;2022-08-21T02:44:08;18.42;;;16.30;;
21034;SDS011;10676;50.848;3.272;2022-08-21T02:46:34;19.67;;;15.98;;
21034;SDS011;10676;50.848;3.272;2022-08-21T02:49:00;22.67;;;15.20;;
21034;SDS011;10676;50.848;3.272;2022-08-21T02:51:25;23.88;;;15.93;;
21034;SDS011;10676;50.848;3.272;2022-08-21T02:53:51;23.35;;;14.40;;
21034;SDS011;10676;50.848;3.272;2022-08-21T02:56:18;19.83;;;14.52;;
21034;SDS011;10676;50.848;3.272;2022-08-21T02:58:47;22.55;;;14.82;;
21034;SDS011;10676;50.848;3.272;2022-08-21T03:01:15;16.75;;;14.70;;
21034;SDS011;10676;50.848;3.272;2022-08-21T03:03:42;16.67;;;15.05;;
21034;SDS011;10676;50.848;3.272;2022-08-21T03:06:24;25.02;;;15.70;;
21034;SDS011;10676;50.848;3.272;2022-08-21T03:08:50;22.70;;;14.68;;
21034;SDS011;10676;50.848;3.272;2022-08-21T03:11:15;18.77;;;15.15;;
21034;SDS011;10676;50.848;3.272;2022-08-21T03:13:42;19.35;;;15.68;;
21034;SDS011;10676;50.848;3.272;2022-08-21T03:16:08;19.83;;;16.13;;
21034;SDS011;10676;50.848;3.272;2022-08-21T03:18:34;22.00;;;17.52;;
21034;SDS011;10676;50.848;3.272;2022-08-21T03:21:00;23.92;;;17.40;;
21034;SDS011;10676;50.848;3.272;2022-08-21T03:23:26;20.13;;;17.58;;
21034;SDS011;10676;50.848;3.272;2022-08-21T03:25:52;23.58;;;16.85;;
21034;SDS011;10676;50.848;3.272;2022-08-21T03:28:19;22.55;;;17.48;;
21034;SDS011;10676;50.848;3.272;2022-08-21T03:30:47;20.52;;;16.73;;
21034;SDS011;10676;50.848;3.272;2022-08-21T03:33:13;25.75;;;17.77;;
21034;SDS011;10676;50.848;3.272;2022-08-21T03:35:40;27.25;;;19.80;;
21034;SDS011;10676;50.848;3.272;2022-08-21T03:38:07;24.58;;;18.92;;
21034;SDS011;10676;50.848;3.272;2022-08-21T03:40:33;25.08;;;20.42;;
21034;SDS011;10676;50.848;3.272;2022-08-21T03:42:58;24.13;;;21.25;;
21034;SDS011;10676;50.848;3.272;2022-08-21T03:45:24;25.40;;;21.75;;
21034;SDS011;10676;50.848;3.272;2022-08-21T03:47:54;34.72;;;22.50;;
21034;SDS011;10676;50.848;3.272;2022-08-21T03:50:25;34.67;;;21.15;;
21034;SDS011;10676;50.848;3.272;2022-08-21T03:52:54;28.73;;;21.27;;
21034;SDS011;10676;50.848;3.272;2022-08-21T03:55:20;28.92;;;22.23;;
21034;SDS011;10676;50.848;3.272;2022-08-21T03:57:45;22.80;;;20.85;;
21034;SDS011;10676;50.848;3.272;2022-08-21T04:00:12;23.67;;;21.20;;
21034;SDS011;10676;50.848;3.272;2022-08-21T04:02:39;25.25;;;20.90;;
21034;SDS011;10676;50.848;3.272;2022-08-21T04:05:05;27.13;;;22.52;;
21034;SDS011;10676;50.848;3.272;2022-08-21T04:07:31;24.60;;;21.60;;
21034;SDS011;10676;50.848;3.272;2022-08-21T04:09:57;23.33;;;20.10;;
21034;SDS011;10676;50.848;3.272;2022-08-21T04:12:23;30.85;;;21.08;;
21034;SDS011;10676;50.848;3.272;2022-08-21T04:14:49;28.45;;;21.85;;
21034;SDS011;10676;50.848;3.272;2022-08-21T04:17:16;26.35;;;20.63;;
21034;SDS011;10676;50.848;3.272;2022-08-21T04:19:43;29.13;;;20.10;;
21034;SDS011;10676;50.848;3.272;2022-08-21T04:22:09;33.97;;;21.08;;
21034;SDS011;10676;50.848;3.272;2022-08-21T04:24:34;30.70;;;19.48;;
21034;SDS011;10676;50.848;3.272;2022-08-21T04:27:00;28.23;;;20.70;;
21034;SDS011;10676;50.848;3.272;2022-08-21T04:29:26;32.53;;;20.45;;
21034;SDS011;10676;50.848;3.272;2022-08-21T04:31:51;23.58;;;21.30;;
21034;SDS011;10676;50.848;3.272;2022-08-21T04:34:17;21.20;;;18.38;;
21034;SDS011;10676;50.848;3.272;2022-08-21T04:36:43;24.52;;;20.20;;
21034;SDS011;10676;50.848;3.272;2022-08-21T04:39:09;31.13;;;20.23;;
21034;SDS011;10676;50.848;3.272;2022-08-21T04:41:35;33.00;;;26.08;;
21034;SDS011;10676;50.848;3.272;2022-08-21T04:44:01;31.80;;;21.65;;
21034;SDS011;10676;50.848;3.272;2022-08-21T04:46:28;25.98;;;21.02;;
21034;SDS011;10676;50.848;3.272;2022-08-21T04:48:54;33.22;;;20.92;;
21034;SDS011;10676;50.848;3.272;2022-08-21T04:51:24;27.30;;;19.83;;
21034;SDS011;10676;50.848;3.272;2022-08-21T04:53:57;22.60;;;19.27;;
21034;SDS011;10676;50.848;3.272;2022-08-21T04:56:48;28.98;;;20.10;;
21034;SDS011;10676;50.848;3.272;2022-08-21T04:59:22;25.55;;;18.65;;
21034;SDS011;10676;50.848;3.272;2022-08-21T05:01:50;29.13;;;20.23;;
21034;SDS011;10676;50.848;3.272;2022-08-21T05:04:17;25.75;;;18.80;;
21034;SDS011;10676;50.848;3.272;2022-08-21T05:06:46;25.27;;;20.58;;
21034;SDS011;10676;50.848;3.272;2022-08-21T05:09:14;31.65;;;22.10;;
21034;SDS011;10676;50.848;3.272;2022-08-21T05:11:42;28.13;;;18.50;;
21034;SDS011;10676;50.848;3.272;2022-08-21T05:14:09;21.65;;;17.92;;
21034;SDS011;10676;50.848;3.272;2022-08-21T05:16:36;24.67;;;16.92;;
21034;SDS011;10676;50.848;3.272;2022-08-21T05:19:03;21.83;;;16.35;;
21034;SDS011;10676;50.848;3.272;2022-08-21T05:21:32;16.77;;;15.05;;
21034;SDS011;10676;50.848;3.272;2022-08-21T05:24:02;26.95;;;14.25;;
21034;SDS011;10676;50.848;3.272;2022-08-21T05:26:28;19.13;;;12.75;;
21034;SDS011;10676;50.848;3.272;2022-08-21T05:28:54;20.25;;;11.95;;
21034;SDS011;10676;50.848;3.272;2022-08-21T05:31:20;12.95;;;11.00;;
21034;SDS011;10676;50.848;3.272;2022-08-21T05:33:46;23.17;;;13.57;;
21034;SDS011;10676;50.848;3.272;2022-08-21T05:36:12;18.40;;;11.63;;
21034;SDS011;10676;50.848;3.272;2022-08-21T05:38:38;23.65;;;11.73;;
21034;SDS011;10676;50.848;3.272;2022-08-21T05:41:04;16.50;;;10.30;;
21034;SDS011;10676;50.848;3.272;2022-08-21T05:43:29;15.40;;;9.38;;
21034;SDS011;10676;50.848;3.272;2022-08-21T05:45:57;16.73;;;8.60;;
21034;SDS011;10676;50.848;3.272;2022-08-21T05:48:23;19.48;;;9.35;;
21034;SDS011;10676;50.848;3.272;2022-08-21T05:50:50;17.70;;;9.38;;
21034;SDS011;10676;50.848;3.272;2022-08-21T05:53:17;18.25;;;7.97;;
21034;SDS011;10676;50.848;3.272;2022-08-21T05:55:44;16.50;;;9.55;;
21034;SDS011;10676;50.848;3.272;2022-08-21T05:58:11;18.00;;;12.73;;
21034;SDS011;10676;50.848;3.272;2022-08-21T06:00:41;14.07;;;7.65;;
21034;SDS011;10676;50.848;3.272;2022-08-21T06:03:15;17.30;;;5.47;;
21034;SDS011;10676;50.848;3.272;2022-08-21T06:05:43;12.43;;;5.30;;
21034;SDS011;10676;50.848;3.272;2022-08-21T06:08:08;14.52;;;7.57;;
21034;SDS011;10676;50.848;3.272;2022-08-21T06:10:34;12.88;;;5.00;;
21034;SDS011;10676;50.848;3.272;2022-08-21T06:13:00;9.17;;;5.63;;
21034;SDS011;10676;50.848;3.272;2022-08-21T06:15:25;14.57;;;5.60;;
21034;SDS011;10676;50.848;3.272;2022-08-21T06:17:52;10.82;;;6.70;;
21034;SDS011;10676;50.848;3.272;2022-08-21T06:20:18;16.00;;;6.88;;
21034;SDS011;10676;50.848;3.272;2022-08-21T06:22:44;9.50;;;6.28;;
21034;SDS011;10676;50.848;3.272;2022-08-21T06:25:09;14.05;;;5.97;;
21034;SDS011;10676;50.848;3.272;2022-08-21T06:27:36;9.52;;;6.47;;
21034;SDS011;10676;50.848;3.272;2022-08-21T06:30:02;13.40;;;6.40;;
21034;SDS011;10676;50.848;3.272;2022-08-21T06:32:29;11.52;;;8.10;;
21034;SDS011;10676;50.848;3.272;2022-08-21T06:34:55;10.20;;;7.13;;
21034;SDS011;10676;50.848;3.272;2022-08-21T06:37:20;11.05;;;7.43;;
21034;SDS011;10676;50.848;3.272;2022-08-21T06:39:47;8.38;;;7.57;;
21034;SDS011;10676;50.848;3.272;2022-08-21T06:42:14;10.20;;;7.95;;
21034;SDS011;10676;50.848;3.272;2022-08-21T06:44:41;14.27;;;7.82;;
21034;SDS011;10676;50.848;3.272;2022-08-21T06:47:07;9.23;;;8.05;;
21034;SDS011;10676;50.848;3.272;2022-08-21T06:49:33;11.77;;;8.15;;
21034;SDS011;10676;50.848;3.272;2022-08-21T06:51:59;11.30;;;8.75;;
21034;SDS011;10676;50.848;3.272;2022-08-21T06:54:25;9.25;;;8.23;;
21034;SDS011;10676;50.848;3.272;2022-08-21T06:56:50;10.82;;;9.75;;
21034;SDS011;10676;50.848;3.272;2022-08-21T06:59:16;15.48;;;14.07;;
21034;SDS011;10676;50.848;3.272;2022-08-21T07:01:42;19.73;;;18.17;;
21034;SDS011;10676;50.848;3.272;2022-08-21T07:04:07;19.88;;;18.38;;
21034;SDS011;10676;50.848;3.272;2022-08-21T07:06:33;15.50;;;14.32;;
21034;SDS011;10676;50.848;3.272;2022-08-21T07:08:59;15.48;;;14.15;;
21034;SDS011;10676;50.848;3.272;2022-08-21T07:11:26;15.73;;;14.35;;
21034;SDS011;10676;50.848;3.272;2022-08-21T07:13:51;15.52;;;14.32;;
21034;SDS011;10676;50.848;3.272;2022-08-21T07:16:19;14.98;;;13.50;;
21034;SDS011;10676;50.848;3.272;2022-08-21T07:18:46;12.95;;;11.63;;
21034;SDS011;10676;50.848;3.272;2022-08-21T07:21:12;13.25;;;12.02;;
21034;SDS011;10676;50.848;3.272;2022-08-21T07:23:39;15.13;;;13.68;;
21034;SDS011;10676;50.848;3.272;2022-08-21T07:26:07;16.02;;;14.63;;
21034;SDS011;10676;50.848;3.272;2022-08-21T07:28:32;16.90;;;15.38;;
21034;SDS011;10676;50.848;3.272;2022-08-21T07:30:59;15.00;;;13.75;;
21034;SDS011;10676;50.848;3.272;2022-08-21T07:33:26;14.93;;;13.65;;
21034;SDS011;10676;50.848;3.272;2022-08-21T07:35:54;13.73;;;12.32;;
21034;SDS011;10676;50.848;3.272;2022-08-21T07:38:20;14.05;;;12.75;;
21034;SDS011;10676;50.848;3.272;2022-08-21T07:40:46;13.90;;;12.45;;
21034;SDS011;10676;50.848;3.272;2022-08-21T07:43:13;15.63;;;14.27;;
21034;SDS011;10676;50.848;3.272;2022-08-21T07:45:41;17.38;;;15.50;;
21034;SDS011;10676;50.848;3.272;2022-08-21T07:48:07;14.85;;;13.63;;
21034;SDS011;10676;50.848;3.272;2022-08-21T07:50:33;16.50;;;13.50;;
21034;SDS011;10676;50.848;3.272;2022-08-21T07:52:59;18.20;;;14.20;;
21034;SDS011;10676;50.848;3.272;2022-08-21T07:55:25;13.45;;;12.27;;
21034;SDS011;10676;50.848;3.272;2022-08-21T07:57:50;12.40;;;11.23;;
21034;SDS011;10676;50.848;3.272;2022-08-21T08:00:20;15.07;;;12.13;;
21034;SDS011;10676;50.848;3.272;2022-08-21T08:02:49;13.65;;;12.55;;
21034;SDS011;10676;50.848;3.272;2022-08-21T08:05:17;16.83;;;14.77;;
21034;SDS011;10676;50.848;3.272;2022-08-21T08:07:44;16.10;;;14.52;;
21034;SDS011;10676;50.848;3.272;2022-08-21T08:10:10;17.45;;;15.73;;
21034;SDS011;10676;50.848;3.272;2022-08-21T08:12:37;17.33;;;15.98;;
21034;SDS011;10676;50.848;3.272;2022-08-21T08:15:07;15.82;;;14.60;;
21034;SDS011;10676;50.848;3.272;2022-08-21T08:17:35;15.13;;;13.82;;
21034;SDS011;10676;50.848;3.272;2022-08-21T08:20:02;15.98;;;14.35;;
21034;SDS011;10676;50.848;3.272;2022-08-21T08:22:29;15.35;;;14.13;;
21034;SDS011;10676;50.848;3.272;2022-08-21T08:24:54;16.88;;;13.32;;
21034;SDS011;10676;50.848;3.272;2022-08-21T08:27:21;13.48;;;12.20;;
21034;SDS011;10676;50.848;3.272;2022-08-21T08:29:47;14.18;;;12.98;;
21034;SDS011;10676;50.848;3.272;2022-08-21T08:32:13;13.30;;;11.93;;
21034;SDS011;10676;50.848;3.272;2022-08-21T08:34:40;12.63;;;11.52;;
21034;SDS011;10676;50.848;3.272;2022-08-21T08:37:07;12.93;;;11.80;;
21034;SDS011;10676;50.848;3.272;2022-08-21T08:39:34;13.07;;;11.85;;
21034;SDS011;10676;50.848;3.272;2022-08-21T08:42:05;13.10;;;11.93;;
21034;SDS011;10676;50.848;3.272;2022-08-21T08:44:34;14.00;;;11.18;;
21034;SDS011;10676;50.848;3.272;2022-08-21T08:47:01;11.07;;;10.25;;
21034;SDS011;10676;50.848;3.272;2022-08-21T08:49:39;12.93;;;11.73;;
21034;SDS011;10676;50.848;3.272;2022-08-21T08:52:21;11.98;;;10.80;;
21034;SDS011;10676;50.848;3.272;2022-08-21T08:54:59;12.25;;;10.88;;
21034;SDS011;10676;50.848;3.272;2022-08-21T08:57:26;11.07;;;10.02;;
21034;SDS011;10676;50.848;3.272;2022-08-21T08:59:53;12.77;;;11.57;;
21034;SDS011;10676;50.848;3.272;2022-08-21T09:02:23;12.95;;;10.57;;
21034;SDS011;10676;50.848;3.272;2022-08-21T09:04:49;11.80;;;10.65;;
21034;SDS011;10676;50.848;3.272;2022-08-21T09:07:20;12.57;;;11.43;;
21034;SDS011;10676;50.848;3.272;2022-08-21T09:21:05;12.55;;;9.27;;
21034;SDS011;10676;50.848;3.272;2022-08-21T09:26:24;10.48;;;9.43;;
21034;SDS011;10676;50.848;3.272;2022-08-21T09:29:01;10.52;;;9.48;;
21034;SDS011;10676;50.848;3.272;2022-08-21T09:31:29;11.77;;;9.18;;
21034;SDS011;10676;50.848;3.272;2022-08-21T09:34:04;10.88;;;9.95;;
21034;SDS011;10676;50.848;3.272;2022-08-21T09:36:37;11.68;;;10.30;;
21034;SDS011;10676;50.848;3.272;2022-08-21T09:39:12;13.15;;;10.68;;
21034;SDS011;10676;50.848;3.272;2022-08-21T09:41:58;11.13;;;9.48;;
21034;SDS011;10676;50.848;3.272;2022-08-21T09:44:36;11.48;;;9.82;;
21034;SDS011;10676;50.848;3.272;2022-08-21T09:47:09;11.05;;;8.23;;
21034;SDS011;10676;50.848;3.272;2022-08-21T09:49:41;10.85;;;9.45;;
21034;SDS011;10676;50.848;3.272;2022-08-21T09:52:41;12.05;;;9.32;;
21034;SDS011;10676;50.848;3.272;2022-08-21T09:54:59;10.60;;;9.45;;
21034;SDS011;10676;50.848;3.272;2022-08-21T09:57:45;12.57;;;10.20;;
21034;SDS011;10676;50.848;3.272;2022-08-21T10:02:47;11.80;;;9.57;;
21034;SDS011;10676;50.848;3.272;2022-08-21T10:07:50;11.15;;;9.90;;
21034;SDS011;10676;50.848;3.272;2022-08-21T10:12:59;12.60;;;11.40;;
21034;SDS011;10676;50.848;3.272;2022-08-21T10:18:29;13.30;;;12.00;;
21034;SDS011;10676;50.848;3.272;2022-08-21T10:21:08;16.35;;;12.88;;
21034;SDS011;10676;50.848;3.272;2022-08-21T10:32:55;14.25;;;12.85;;
21034;SDS011;10676;50.848;3.272;2022-08-21T10:35:06;13.50;;;12.32;;
21034;SDS011;10676;50.848;3.272;2022-08-21T10:43:03;14.75;;;10.15;;
21034;SDS011;10676;50.848;3.272;2022-08-21T10:48:35;11.73;;;10.70;;
21034;SDS011;10676;50.848;3.272;2022-08-21T10:51:10;11.20;;;10.10;;
21034;SDS011;10676;50.848;3.272;2022-08-21T10:56:39;12.32;;;10.55;;
21034;SDS011;10676;50.848;3.272;2022-08-21T10:59:16;12.15;;;10.95;;
21034;SDS011;10676;50.848;3.272;2022-08-21T11:04:37;15.00;;;11.88;;
21034;SDS011;10676;50.848;3.272;2022-08-21T11:07:25;13.00;;;11.65;;
21034;SDS011;10676;50.848;3.272;2022-08-21T11:09:56;14.30;;;12.77;;
21034;SDS011;10676;50.848;3.272;2022-08-21T11:17:44;12.82;;;11.55;;
21034;SDS011;10676;50.848;3.272;2022-08-21T11:20:28;12.65;;;10.57;;
21034;SDS011;10676;50.848;3.272;2022-08-21T11:23:11;13.73;;;12.27;;
21034;SDS011;10676;50.848;3.272;2022-08-21T11:25:52;13.02;;;11.13;;
21034;SDS011;10676;50.848;3.272;2022-08-21T11:28:41;14.35;;;12.88;;
21034;SDS011;10676;50.848;3.272;2022-08-21T11:37:04;13.93;;;12.75;;
21034;SDS011;10676;50.848;3.272;2022-08-21T11:39:42;13.25;;;11.90;;
21034;SDS011;10676;50.848;3.272;2022-08-21T11:45:16;13.65;;;12.25;;
21034;SDS011;10676;50.848;3.272;2022-08-21T11:48:17;13.27;;;11.98;;
21034;SDS011;10676;50.848;3.272;2022-08-21T11:51:03;13.18;;;11.88;;
21034;SDS011;10676;50.848;3.272;2022-08-21T11:53:44;13.80;;;12.48;;
21034;SDS011;10676;50.848;3.272;2022-08-21T11:59:38;13.30;;;12.05;;
21034;SDS011;10676;50.848;3.272;2022-08-21T12:02:09;12.40;;;11.13;;
21034;SDS011;10676;50.848;3.272;2022-08-21T12:04:44;15.32;;;12.18;;
21034;SDS011;10676;50.848;3.272;2022-08-21T12:07:17;10.95;;;9.85;;
21034;SDS011;10676;50.848;3.272;2022-08-21T12:09:55;12.27;;;11.25;;
21034;SDS011;10676;50.848;3.272;2022-08-21T12:12:30;13.27;;;11.98;;
21034;SDS011;10676;50.848;3.272;2022-08-21T12:17:50;12.68;;;10.95;;
21034;SDS011;10676;50.848;3.272;2022-08-21T12:20:23;14.82;;;12.18;;
21034;SDS011;10676;50.848;3.272;2022-08-21T12:23:14;10.60;;;9.60;;
21034;SDS011;10676;50.848;3.272;2022-08-21T12:26:00;12.07;;;10.23;;
21034;SDS011;10676;50.848;3.272;2022-08-21T12:28:28;12.23;;;10.52;;
21034;SDS011;10676;50.848;3.272;2022-08-21T12:30:55;11.55;;;10.45;;
21034;SDS011;10676;50.848;3.272;2022-08-21T12:36:01;11.98;;;10.82;;
21034;SDS011;10676;50.848;3.272;2022-08-21T12:38:48;13.68;;;12.00;;
21034;SDS011;10676;50.848;3.272;2022-08-21T12:41:20;12.70;;;11.52;;
21034;SDS011;10676;50.848;3.272;2022-08-21T12:43:57;12.10;;;11.20;;
21034;SDS011;10676;50.848;3.272;2022-08-21T12:46:43;12.75;;;11.55;;
21034;SDS011;10676;50.848;3.272;2022-08-21T12:49:14;15.35;;;12.57;;
21034;SDS011;10676;50.848;3.272;2022-08-21T12:54:27;15.68;;;12.85;;
21034;SDS011;10676;50.848;3.272;2022-08-21T12:56:59;12.57;;;11.35;;
21034;SDS011;10676;50.848;3.272;2022-08-21T12:59:27;13.98;;;12.57;;
21034;SDS011;10676;50.848;3.272;2022-08-21T13:01:53;13.02;;;12.02;;
21034;SDS011;10676;50.848;3.272;2022-08-21T13:04:32;13.10;;;11.85;;
21034;SDS011;10676;50.848;3.272;2022-08-21T13:07:04;15.02;;;13.52;;
21034;SDS011;10676;50.848;3.272;2022-08-21T13:09:32;12.80;;;11.52;;
21034;SDS011;10676;50.848;3.272;2022-08-21T13:11:58;16.00;;;12.75;;
21034;SDS011;10676;50.848;3.272;2022-08-21T13:14:30;13.63;;;12.35;;
21034;SDS011;10676;50.848;3.272;2022-08-21T13:17:02;13.65;;;12.43;;
21034;SDS011;10676;50.848;3.272;2022-08-21T13:19:30;14.55;;;13.02;;
21034;SDS011;10676;50.848;3.272;2022-08-21T13:21:56;15.75;;;12.52;;
21034;SDS011;10676;50.848;3.272;2022-08-21T13:24:27;12.68;;;11.68;;
21034;SDS011;10676;50.848;3.272;2022-08-21T13:26:55;12.93;;;11.18;;
21034;SDS011;10676;50.848;3.272;2022-08-21T13:29:22;13.60;;;11.85;;
21034;SDS011;10676;50.848;3.272;2022-08-21T13:31:59;14.00;;;12.70;;
21034;SDS011;10676;50.848;3.272;2022-08-21T13:34:35;15.50;;;12.18;;
21034;SDS011;10676;50.848;3.272;2022-08-21T13:37:03;15.05;;;12.43;;
21034;SDS011;10676;50.848;3.272;2022-08-21T13:39:31;14.63;;;13.52;;
21034;SDS011;10676;50.848;3.272;2022-08-21T13:41:58;14.52;;;13.20;;
21034;SDS011;10676;50.848;3.272;2022-08-21T13:44:36;17.73;;;16.05;;
21034;SDS011;10676;50.848;3.272;2022-08-21T13:47:06;15.05;;;13.35;;
21034;SDS011;10676;50.848;3.272;2022-08-21T13:49:38;15.60;;;14.00;;
21034;SDS011;10676;50.848;3.272;2022-08-21T13:52:17;15.38;;;14.10;;
21034;SDS011;10676;50.848;3.272;2022-08-21T13:54:55;15.30;;;13.68;;
21034;SDS011;10676;50.848;3.272;2022-08-21T13:57:33;15.02;;;13.32;;
21034;SDS011;10676;50.848;3.272;2022-08-21T14:00:13;15.13;;;13.75;;
21034;SDS011;10676;50.848;3.272;2022-08-21T14:02:43;14.77;;;13.13;;
21034;SDS011;10676;50.848;3.272;2022-08-21T14:05:21;15.00;;;13.57;;
21034;SDS011;10676;50.848;3.272;2022-08-21T14:07:47;14.30;;;13.05;;
21034;SDS011;10676;50.848;3.272;2022-08-21T14:10:17;13.98;;;12.77;;
21034;SDS011;10676;50.848;3.272;2022-08-21T14:13:07;14.95;;;13.52;;
21034;SDS011;10676;50.848;3.272;2022-08-21T14:15:33;13.70;;;12.32;;
21034;SDS011;10676;50.848;3.272;2022-08-21T14:18:13;14.40;;;13.00;;
21034;SDS011;10676;50.848;3.272;2022-08-21T14:20:42;13.40;;;12.00;;
21034;SDS011;10676;50.848;3.272;2022-08-21T14:23:08;13.43;;;11.88;;
21034;SDS011;10676;50.848;3.272;2022-08-21T14:25:43;13.77;;;12.38;;
21034;SDS011;10676;50.848;3.272;2022-08-21T14:28:13;14.00;;;12.60;;
21034;SDS011;10676;50.848;3.272;2022-08-21T14:30:48;16.92;;;12.32;;
21034;SDS011;10676;50.848;3.272;2022-08-21T14:33:18;15.27;;;12.82;;
21034;SDS011;10676;50.848;3.272;2022-08-21T14:35:58;15.07;;;11.00;;
21034;SDS011;10676;50.848;3.272;2022-08-21T14:38:26;10.95;;;9.88;;
21034;SDS011;10676;50.848;3.272;2022-08-21T14:40:54;10.88;;;9.93;;
21034;SDS011;10676;50.848;3.272;2022-08-21T14:43:22;11.30;;;10.00;;
21034;SDS011;10676;50.848;3.272;2022-08-21T14:45:50;12.80;;;9.98;;
21034;SDS011;10676;50.848;3.272;2022-08-21T14:48:15;10.80;;;8.98;;
21034;SDS011;10676;50.848;3.272;2022-08-21T14:50:41;11.07;;;8.98;;
21034;SDS011;10676;50.848;3.272;2022-08-21T14:53:07;10.38;;;9.38;;
21034;SDS011;10676;50.848;3.272;2022-08-21T14:55:33;11.50;;;9.73;;
21034;SDS011;10676;50.848;3.272;2022-08-21T14:58:19;11.20;;;10.13;;
21034;SDS011;10676;50.848;3.272;2022-08-21T15:00:45;11.52;;;10.52;;
21034;SDS011;10676;50.848;3.272;2022-08-21T15:03:11;12.90;;;11.60;;
21034;SDS011;10676;50.848;3.272;2022-08-21T15:05:36;11.70;;;10.80;;
21034;SDS011;10676;50.848;3.272;2022-08-21T15:08:02;11.15;;;10.10;;
21034;SDS011;10676;50.848;3.272;2022-08-21T15:10:30;9.95;;;9.07;;
21034;SDS011;10676;50.848;3.272;2022-08-21T15:12:57;11.50;;;9.95;;
21034;SDS011;10676;50.848;3.272;2022-08-21T15:15:23;11.13;;;10.02;;
21034;SDS011;10676;50.848;3.272;2022-08-21T15:17:48;13.35;;;12.15;;
21034;SDS011;10676;50.848;3.272;2022-08-21T15:20:14;13.35;;;11.20;;
21034;SDS011;10676;50.848;3.272;2022-08-21T15:22:40;11.63;;;10.43;;
21034;SDS011;10676;50.848;3.272;2022-08-21T15:25:05;12.23;;;11.07;;
21034;SDS011;10676;50.848;3.272;2022-08-21T15:27:31;15.50;;;11.50;;
21034;SDS011;10676;50.848;3.272;2022-08-21T15:29:57;13.15;;;9.25;;
21034;SDS011;10676;50.848;3.272;2022-08-21T15:32:24;10.13;;;9.13;;
21034;SDS011;10676;50.848;3.272;2022-08-21T15:34:53;12.43;;;8.88;;
21034;SDS011;10676;50.848;3.272;2022-08-21T15:37:20;10.15;;;9.18;;
21034;SDS011;10676;50.848;3.272;2022-08-21T15:39:47;11.27;;;9.93;;
21034;SDS011;10676;50.848;3.272;2022-08-21T15:42:14;12.60;;;10.55;;
21034;SDS011;10676;50.848;3.272;2022-08-21T15:44:40;12.57;;;11.57;;
21034;SDS011;10676;50.848;3.272;2022-08-21T15:47:09;13.80;;;12.65;;
21034;SDS011;10676;50.848;3.272;2022-08-21T15:49:38;12.90;;;11.70;;
21034;SDS011;10676;50.848;3.272;2022-08-21T15:52:04;14.10;;;12.85;;